EZS27FR LSGG-LFRS
Flight info
| Callsign | EZS27FR |
|---|---|
| Flight time | 1h 6m |
| Altitude | 28000 |
| Route | DEPUL1A DEPUL T544 LSE DCT RUSIT DCT MEBAK DCT BELEP DCT TIS/N0421F290 DCT LMG/N0402F280 DCT MANAK MANAK1C |
| Aircraft | A320/M-SDE3FGHIRWY/LB1 |
Departure
| Time | 2026-05-05 16:13 |
|---|---|
| Airport | Geneva International Airport (LSGG) |
Arrival
| Time | 2026-05-05 17:20 |
|---|---|
| Airport | Nantes Atlantique Airport (LFRS) |
| Time | Latitude | Longitude | Altitude | Speed | Heading |
|---|---|---|---|---|---|
| 2026-05-05 15:38 | 46.23223 | 6.10497 | 1403 ft | 0 kts | 270° |
| 2026-05-05 16:07 | 46.23223 | 6.10482 | 1398 ft | 4 kts | 271° |
| 2026-05-05 16:07 | 46.23254 | 6.10445 | 1394 ft | 7 kts | 7° |
| 2026-05-05 16:07 | 46.23280 | 6.10468 | 1400 ft | 6 kts | 41° |
| 2026-05-05 16:07 | 46.23308 | 6.10509 | 1397 ft | 5 kts | 45° |
| 2026-05-05 16:08 | 46.23333 | 6.10545 | 1398 ft | 4 kts | 45° |
| 2026-05-05 16:08 | 46.23352 | 6.10574 | 1397 ft | 4 kts | 45° |
| 2026-05-05 16:08 | 46.23386 | 6.10621 | 1399 ft | 10 kts | 40° |
| 2026-05-05 16:08 | 46.23457 | 6.10716 | 1387 ft | 17 kts | 45° |
| 2026-05-05 16:09 | 46.23540 | 6.10838 | 1390 ft | 17 kts | 45° |
| 2026-05-05 16:09 | 46.23618 | 6.10952 | 1387 ft | 16 kts | 45° |
| 2026-05-05 16:09 | 46.23691 | 6.11060 | 1386 ft | 15 kts | 46° |
| 2026-05-05 16:09 | 46.23782 | 6.11194 | 1379 ft | 22 kts | 45° |
| 2026-05-05 16:10 | 46.23895 | 6.11359 | 1374 ft | 24 kts | 45° |
| 2026-05-05 16:10 | 46.24023 | 6.11547 | 1371 ft | 28 kts | 45° |
| 2026-05-05 16:10 | 46.24166 | 6.11757 | 1365 ft | 31 kts | 45° |
| 2026-05-05 16:10 | 46.24320 | 6.11983 | 1363 ft | 29 kts | 46° |
| 2026-05-05 16:11 | 46.24443 | 6.12164 | 1371 ft | 24 kts | 45° |
| 2026-05-05 16:11 | 46.24817 | 6.12675 | 1363 ft | 19 kts | 18° |
| 2026-05-05 16:12 | 46.24938 | 6.12727 | 1367 ft | 16 kts | 9° |
| 2026-05-05 16:12 | 46.24931 | 6.12547 | 1372 ft | 20 kts | 226° |
| 2026-05-05 16:13 | 46.23297 | 6.10121 | 1637 ft | 166 kts | 228° |
| 2026-05-05 16:13 | 46.22505 | 6.08937 | 2512 ft | 161 kts | 226° |
| 2026-05-05 16:13 | 46.21699 | 6.07725 | 3051 ft | 175 kts | 226° |
| 2026-05-05 16:14 | 46.19786 | 6.04949 | 3758 ft | 220 kts | 225° |
| 2026-05-05 16:14 | 46.17456 | 6.01553 | 5095 ft | 247 kts | 225° |
| 2026-05-05 16:15 | 46.15010 | 5.97981 | 6945 ft | 253 kts | 224° |
| 2026-05-05 16:15 | 46.12825 | 5.93906 | 8682 ft | 262 kts | 235° |
| 2026-05-05 16:16 | 46.10814 | 5.89479 | 10210 ft | 275 kts | 234° |
| 2026-05-05 16:16 | 46.08519 | 5.84524 | 10988 ft | 311 kts | 234° |
| 2026-05-05 16:17 | 46.06092 | 5.79259 | 12426 ft | 321 kts | 235° |
| 2026-05-05 16:17 | 46.04847 | 5.76563 | 13176 ft | 325 kts | 234° |
| 2026-05-05 16:18 | 46.02320 | 5.71117 | 14551 ft | 331 kts | 234° |
| 2026-05-05 16:18 | 46.01034 | 5.68353 | 15222 ft | 334 kts | 234° |
| 2026-05-05 16:18 | 45.98416 | 5.62745 | 16549 ft | 340 kts | 234° |
| 2026-05-05 16:19 | 45.97096 | 5.59908 | 17211 ft | 343 kts | 234° |
| 2026-05-05 16:19 | 45.95799 | 5.57055 | 17836 ft | 346 kts | 236° |
| 2026-05-05 16:19 | 45.93200 | 5.51136 | 18927 ft | 354 kts | 236° |
| 2026-05-05 16:20 | 45.90555 | 5.45072 | 20017 ft | 360 kts | 236° |
| 2026-05-05 16:20 | 45.87876 | 5.38998 | 21080 ft | 365 kts | 236° |
| 2026-05-05 16:21 | 45.85124 | 5.32794 | 22151 ft | 370 kts | 236° |
| 2026-05-05 16:22 | 45.80967 | 5.23433 | 23685 ft | 375 kts | 236° |
| 2026-05-05 16:22 | 45.78141 | 5.17092 | 24544 ft | 378 kts | 236° |
| 2026-05-05 16:23 | 45.75301 | 5.10748 | 25380 ft | 381 kts | 236° |
| 2026-05-05 16:23 | 45.73888 | 5.07521 | 25777 ft | 384 kts | 237° |
| 2026-05-05 16:23 | 45.71240 | 5.00813 | 26542 ft | 388 kts | 239° |
| 2026-05-05 16:24 | 45.69960 | 4.97399 | 26934 ft | 390 kts | 239° |
| 2026-05-05 16:24 | 45.68766 | 4.93944 | 27307 ft | 394 kts | 246° |
| 2026-05-05 16:24 | 45.67696 | 4.86173 | 27866 ft | 404 kts | 266° |
| 2026-05-05 16:25 | 45.67944 | 4.82258 | 27888 ft | 397 kts | 276° |
| 2026-05-05 16:25 | 45.69222 | 4.74602 | 27887 ft | 392 kts | 278° |
| 2026-05-05 16:25 | 45.69853 | 4.70796 | 27886 ft | 391 kts | 278° |
| 2026-05-05 16:26 | 45.71089 | 4.63195 | 27888 ft | 394 kts | 279° |
| 2026-05-05 16:26 | 45.72333 | 4.55567 | 27886 ft | 395 kts | 278° |
| 2026-05-05 16:27 | 45.72957 | 4.51725 | 27883 ft | 395 kts | 279° |
| 2026-05-05 16:27 | 45.73573 | 4.47930 | 27885 ft | 395 kts | 279° |
| 2026-05-05 16:27 | 45.74198 | 4.44080 | 27886 ft | 395 kts | 279° |
| 2026-05-05 16:27 | 45.74820 | 4.40239 | 27884 ft | 395 kts | 279° |
| 2026-05-05 16:28 | 45.75441 | 4.36403 | 27883 ft | 395 kts | 279° |
| 2026-05-05 16:28 | 45.76052 | 4.32621 | 27882 ft | 395 kts | 279° |
| 2026-05-05 16:28 | 45.76674 | 4.28773 | 27905 ft | 395 kts | 279° |
| 2026-05-05 16:28 | 45.77294 | 4.24930 | 27894 ft | 395 kts | 279° |
| 2026-05-05 16:29 | 45.77911 | 4.21076 | 27883 ft | 396 kts | 279° |
| 2026-05-05 16:29 | 45.78516 | 4.17274 | 27878 ft | 396 kts | 278° |
| 2026-05-05 16:29 | 45.79129 | 4.13423 | 27872 ft | 396 kts | 279° |
| 2026-05-05 16:29 | 45.79742 | 4.09563 | 27873 ft | 396 kts | 278° |
| 2026-05-05 16:30 | 45.80351 | 4.05708 | 27870 ft | 396 kts | 278° |
| 2026-05-05 16:30 | 45.80952 | 4.01888 | 27877 ft | 396 kts | 278° |
| 2026-05-05 16:30 | 45.81559 | 3.98023 | 27873 ft | 396 kts | 278° |
| 2026-05-05 16:30 | 45.82166 | 3.94161 | 27871 ft | 396 kts | 278° |
| 2026-05-05 16:31 | 45.82766 | 3.90339 | 27889 ft | 397 kts | 279° |
| 2026-05-05 16:31 | 45.83372 | 3.86460 | 27874 ft | 398 kts | 279° |
| 2026-05-05 16:31 | 45.83976 | 3.82582 | 27866 ft | 399 kts | 279° |
| 2026-05-05 16:31 | 45.84583 | 3.78689 | 27864 ft | 399 kts | 279° |
| 2026-05-05 16:32 | 45.85184 | 3.74840 | 27864 ft | 400 kts | 279° |
| 2026-05-05 16:32 | 45.85792 | 3.70921 | 27864 ft | 400 kts | 279° |
| 2026-05-05 16:32 | 45.86396 | 3.66998 | 27863 ft | 401 kts | 279° |
| 2026-05-05 16:32 | 45.86993 | 3.63137 | 27866 ft | 401 kts | 279° |
| 2026-05-05 16:33 | 45.87597 | 3.59218 | 27862 ft | 401 kts | 279° |
| 2026-05-05 16:33 | 45.88080 | 3.55284 | 27865 ft | 398 kts | 271° |
| 2026-05-05 16:33 | 45.88138 | 3.51330 | 27865 ft | 395 kts | 265° |
| 2026-05-05 16:33 | 45.88069 | 3.47417 | 27866 ft | 395 kts | 265° |
| 2026-05-05 16:34 | 45.87998 | 3.43464 | 27867 ft | 395 kts | 265° |
| 2026-05-05 16:34 | 45.87932 | 3.39496 | 27868 ft | 395 kts | 265° |
| 2026-05-05 16:34 | 45.87869 | 3.35588 | 27871 ft | 395 kts | 265° |
| 2026-05-05 16:34 | 45.87804 | 3.31636 | 27873 ft | 395 kts | 265° |
| 2026-05-05 16:35 | 45.87737 | 3.27682 | 27871 ft | 395 kts | 265° |
| 2026-05-05 16:35 | 45.87669 | 3.23774 | 27874 ft | 395 kts | 265° |
| 2026-05-05 16:35 | 45.87598 | 3.19817 | 27874 ft | 395 kts | 265° |
| 2026-05-05 16:35 | 45.87523 | 3.15871 | 27876 ft | 395 kts | 265° |
| 2026-05-05 16:36 | 45.87447 | 3.11912 | 27888 ft | 395 kts | 266° |
| 2026-05-05 16:36 | 45.87371 | 3.08007 | 27880 ft | 395 kts | 265° |
| 2026-05-05 16:36 | 45.87296 | 3.04046 | 27873 ft | 396 kts | 265° |
| 2026-05-05 16:36 | 45.87221 | 3.00085 | 27869 ft | 396 kts | 266° |
| 2026-05-05 16:37 | 45.87144 | 2.96180 | 27865 ft | 396 kts | 265° |
| 2026-05-05 16:37 | 45.87061 | 2.92206 | 27862 ft | 396 kts | 265° |
| 2026-05-05 16:37 | 45.86978 | 2.88247 | 27861 ft | 396 kts | 265° |
| 2026-05-05 16:37 | 45.86897 | 2.84336 | 27860 ft | 396 kts | 265° |
| 2026-05-05 16:38 | 45.86815 | 2.80376 | 27855 ft | 396 kts | 265° |
| 2026-05-05 16:38 | 45.86729 | 2.76406 | 27857 ft | 396 kts | 265° |
| 2026-05-05 16:38 | 45.86641 | 2.72502 | 27874 ft | 396 kts | 266° |
| 2026-05-05 16:38 | 45.86550 | 2.68547 | 27871 ft | 396 kts | 266° |
| 2026-05-05 16:39 | 45.86460 | 2.64585 | 27869 ft | 396 kts | 266° |
| 2026-05-05 16:39 | 45.86372 | 2.60614 | 27865 ft | 396 kts | 266° |
| 2026-05-05 16:39 | 45.86284 | 2.56712 | 27864 ft | 396 kts | 266° |
| 2026-05-05 16:39 | 45.86188 | 2.52752 | 27864 ft | 396 kts | 265° |
| 2026-05-05 16:40 | 45.86087 | 2.48801 | 27864 ft | 396 kts | 265° |
| 2026-05-05 16:40 | 45.85983 | 2.44831 | 27864 ft | 396 kts | 265° |
| 2026-05-05 16:40 | 45.85881 | 2.40870 | 27864 ft | 396 kts | 265° |
| 2026-05-05 16:40 | 45.85782 | 2.36965 | 27864 ft | 396 kts | 265° |
| 2026-05-05 16:41 | 45.85683 | 2.33003 | 27884 ft | 397 kts | 265° |
| 2026-05-05 16:41 | 45.85583 | 2.29044 | 27883 ft | 396 kts | 265° |
| 2026-05-05 16:41 | 45.85482 | 2.25072 | 27881 ft | 396 kts | 265° |
| 2026-05-05 16:41 | 45.85383 | 2.21153 | 27880 ft | 396 kts | 265° |
| 2026-05-05 16:42 | 45.85279 | 2.17183 | 27885 ft | 396 kts | 265° |
| 2026-05-05 16:42 | 45.85174 | 2.13260 | 27882 ft | 396 kts | 265° |
| 2026-05-05 16:42 | 45.85063 | 2.09285 | 27886 ft | 396 kts | 265° |
| 2026-05-05 16:42 | 45.84949 | 2.05362 | 27885 ft | 396 kts | 265° |
| 2026-05-05 16:43 | 45.84834 | 2.01401 | 27891 ft | 396 kts | 265° |
| 2026-05-05 16:43 | 45.84718 | 1.97437 | 27891 ft | 396 kts | 265° |
| 2026-05-05 16:43 | 45.84607 | 1.93533 | 27897 ft | 397 kts | 265° |
| 2026-05-05 16:43 | 45.84494 | 1.89564 | 27886 ft | 397 kts | 265° |
| 2026-05-05 16:44 | 45.84376 | 1.85581 | 27893 ft | 398 kts | 265° |
| 2026-05-05 16:44 | 45.84255 | 1.81614 | 27890 ft | 398 kts | 265° |
| 2026-05-05 16:44 | 45.84133 | 1.77697 | 27889 ft | 398 kts | 265° |
| 2026-05-05 16:44 | 45.84010 | 1.73721 | 27890 ft | 398 kts | 265° |
| 2026-05-05 16:45 | 45.83887 | 1.69744 | 27899 ft | 399 kts | 265° |
| 2026-05-05 16:45 | 45.83764 | 1.65804 | 27899 ft | 399 kts | 265° |
| 2026-05-05 16:45 | 45.83638 | 1.61825 | 27900 ft | 399 kts | 265° |
| 2026-05-05 16:45 | 45.83509 | 1.57832 | 27900 ft | 399 kts | 265° |
| 2026-05-05 16:46 | 45.83383 | 1.53891 | 27910 ft | 399 kts | 265° |
| 2026-05-05 16:46 | 45.83257 | 1.49901 | 27902 ft | 400 kts | 265° |
| 2026-05-05 16:46 | 45.83128 | 1.45905 | 27899 ft | 400 kts | 265° |
| 2026-05-05 16:46 | 45.82995 | 1.41906 | 27896 ft | 400 kts | 265° |
| 2026-05-05 16:47 | 45.82858 | 1.37964 | 27897 ft | 401 kts | 265° |
| 2026-05-05 16:47 | 45.82719 | 1.33967 | 27896 ft | 401 kts | 265° |
| 2026-05-05 16:47 | 45.82579 | 1.29970 | 27898 ft | 401 kts | 265° |
| 2026-05-05 16:47 | 45.82435 | 1.25961 | 27899 ft | 401 kts | 265° |
| 2026-05-05 16:48 | 45.82292 | 1.22007 | 27900 ft | 402 kts | 265° |
| 2026-05-05 16:48 | 45.82147 | 1.17997 | 27900 ft | 402 kts | 265° |
| 2026-05-05 16:48 | 45.82001 | 1.13988 | 27909 ft | 402 kts | 265° |
| 2026-05-05 16:48 | 45.81856 | 1.09980 | 27903 ft | 402 kts | 265° |
| 2026-05-05 16:49 | 45.81723 | 1.06008 | 27899 ft | 403 kts | 268° |
| 2026-05-05 16:49 | 45.81904 | 1.01986 | 27899 ft | 405 kts | 277° |
| 2026-05-05 16:49 | 45.82558 | 0.98016 | 27899 ft | 407 kts | 285° |
| 2026-05-05 16:49 | 45.83381 | 0.94175 | 27896 ft | 408 kts | 284° |
| 2026-05-05 16:50 | 45.84210 | 0.90269 | 27904 ft | 408 kts | 285° |
| 2026-05-05 16:50 | 45.85029 | 0.86354 | 27890 ft | 408 kts | 284° |
| 2026-05-05 16:50 | 45.85835 | 0.82483 | 27894 ft | 408 kts | 284° |
| 2026-05-05 16:50 | 45.86655 | 0.78559 | 27904 ft | 409 kts | 285° |
| 2026-05-05 16:51 | 45.87465 | 0.74686 | 27903 ft | 409 kts | 284° |
| 2026-05-05 16:51 | 45.88286 | 0.70763 | 27898 ft | 409 kts | 285° |
| 2026-05-05 16:51 | 45.89104 | 0.66842 | 27896 ft | 410 kts | 285° |
| 2026-05-05 16:51 | 45.89924 | 0.62902 | 27892 ft | 410 kts | 284° |
| 2026-05-05 16:52 | 45.90729 | 0.59024 | 27893 ft | 410 kts | 285° |
| 2026-05-05 16:52 | 45.91544 | 0.55087 | 27893 ft | 410 kts | 285° |
| 2026-05-05 16:52 | 45.92361 | 0.51138 | 27899 ft | 411 kts | 284° |
| 2026-05-05 16:52 | 45.93175 | 0.47200 | 27891 ft | 411 kts | 285° |
| 2026-05-05 16:53 | 45.93981 | 0.43300 | 27893 ft | 411 kts | 285° |
| 2026-05-05 16:53 | 45.94795 | 0.39348 | 27912 ft | 411 kts | 285° |
| 2026-05-05 16:53 | 45.95597 | 0.35442 | 27903 ft | 411 kts | 285° |
| 2026-05-05 16:53 | 45.96406 | 0.31488 | 27899 ft | 411 kts | 285° |
| 2026-05-05 16:54 | 45.97217 | 0.27527 | 27890 ft | 412 kts | 285° |
| 2026-05-05 16:54 | 45.98027 | 0.23563 | 27883 ft | 412 kts | 285° |
| 2026-05-05 16:54 | 45.98823 | 0.19653 | 27884 ft | 413 kts | 286° |
| 2026-05-05 16:54 | 45.99631 | 0.15681 | 27882 ft | 413 kts | 285° |
| 2026-05-05 16:55 | 46.00441 | 0.11694 | 27884 ft | 413 kts | 286° |
| 2026-05-05 16:55 | 46.01248 | 0.07719 | 27888 ft | 413 kts | 285° |
| 2026-05-05 16:55 | 46.02052 | 0.03744 | 27888 ft | 413 kts | 285° |
| 2026-05-05 16:55 | 46.02844 | -0.00183 | 27906 ft | 413 kts | 285° |
| 2026-05-05 16:56 | 46.03646 | -0.04166 | 27892 ft | 414 kts | 287° |
| 2026-05-05 16:56 | 46.04451 | -0.08165 | 27870 ft | 416 kts | 287° |
| 2026-05-05 16:56 | 46.05258 | -0.12180 | 27861 ft | 418 kts | 287° |
| 2026-05-05 16:56 | 46.05791 | -0.14849 | 27864 ft | 418 kts | 286° |
| 2026-05-05 16:57 | 46.06854 | -0.20196 | 27866 ft | 419 kts | 286° |
| 2026-05-05 16:57 | 46.07654 | -0.24226 | 27656 ft | 415 kts | 286° |
| 2026-05-05 16:57 | 46.08178 | -0.26869 | 27476 ft | 411 kts | 286° |
| 2026-05-05 16:57 | 46.08963 | -0.30826 | 27201 ft | 409 kts | 286° |
| 2026-05-05 16:58 | 46.09996 | -0.36018 | 26728 ft | 402 kts | 286° |
| 2026-05-05 16:58 | 46.10506 | -0.38590 | 26407 ft | 400 kts | 286° |
| 2026-05-05 16:58 | 46.11269 | -0.42438 | 25938 ft | 396 kts | 286° |
| 2026-05-05 16:58 | 46.12020 | -0.46245 | 25476 ft | 393 kts | 286° |
| 2026-05-05 16:59 | 46.12764 | -0.50029 | 25026 ft | 389 kts | 285° |
| 2026-05-05 16:59 | 46.13497 | -0.53778 | 24563 ft | 386 kts | 285° |
| 2026-05-05 16:59 | 46.14225 | -0.57494 | 24106 ft | 383 kts | 285° |
| 2026-05-05 16:59 | 46.14940 | -0.61148 | 23645 ft | 382 kts | 285° |
| 2026-05-05 17:00 | 46.15661 | -0.64848 | 23136 ft | 379 kts | 285° |
| 2026-05-05 17:00 | 46.16368 | -0.68494 | 22657 ft | 376 kts | 285° |
| 2026-05-05 17:00 | 46.17064 | -0.72078 | 22185 ft | 372 kts | 285° |
| 2026-05-05 17:00 | 46.17763 | -0.75675 | 21724 ft | 370 kts | 285° |
| 2026-05-05 17:01 | 46.18455 | -0.79240 | 21261 ft | 368 kts | 284° |
| 2026-05-05 17:01 | 46.19132 | -0.82754 | 20799 ft | 366 kts | 285° |
| 2026-05-05 17:01 | 46.19813 | -0.86289 | 20333 ft | 364 kts | 285° |
| 2026-05-05 17:01 | 46.20513 | -0.89808 | 19874 ft | 362 kts | 289° |
| 2026-05-05 17:02 | 46.21564 | -0.93099 | 19405 ft | 361 kts | 301° |
| 2026-05-05 17:02 | 46.23070 | -0.95983 | 18970 ft | 359 kts | 313° |
| 2026-05-05 17:02 | 46.24921 | -0.98338 | 18523 ft | 358 kts | 321° |
| 2026-05-05 17:02 | 46.26873 | -1.00572 | 18041 ft | 356 kts | 321° |
| 2026-05-05 17:03 | 46.28815 | -1.02813 | 17571 ft | 354 kts | 321° |
| 2026-05-05 17:03 | 46.30712 | -1.05010 | 17142 ft | 351 kts | 321° |
| 2026-05-05 17:03 | 46.32619 | -1.07223 | 16698 ft | 348 kts | 321° |
| 2026-05-05 17:03 | 46.34487 | -1.09395 | 16266 ft | 345 kts | 321° |
| 2026-05-05 17:04 | 46.36364 | -1.11580 | 15833 ft | 343 kts | 321° |
| 2026-05-05 17:04 | 46.38226 | -1.13751 | 15404 ft | 341 kts | 320° |
| 2026-05-05 17:04 | 46.40049 | -1.15876 | 14981 ft | 339 kts | 320° |
| 2026-05-05 17:04 | 46.41890 | -1.18024 | 14536 ft | 338 kts | 320° |
| 2026-05-05 17:05 | 46.43731 | -1.20168 | 14110 ft | 337 kts | 320° |
| 2026-05-05 17:05 | 46.45526 | -1.22258 | 13751 ft | 333 kts | 321° |
| 2026-05-05 17:05 | 46.47343 | -1.24375 | 13221 ft | 334 kts | 320° |
| 2026-05-05 17:05 | 46.49153 | -1.26483 | 12782 ft | 331 kts | 320° |
| 2026-05-05 17:06 | 46.50923 | -1.28545 | 12358 ft | 328 kts | 320° |
| 2026-05-05 17:06 | 46.52703 | -1.30626 | 11923 ft | 325 kts | 320° |
| 2026-05-05 17:06 | 46.54462 | -1.32690 | 11487 ft | 323 kts | 320° |
| 2026-05-05 17:06 | 46.56206 | -1.34739 | 11059 ft | 320 kts | 319° |
| 2026-05-05 17:07 | 46.57912 | -1.36745 | 10629 ft | 318 kts | 319° |
| 2026-05-05 17:07 | 46.59721 | -1.38613 | 10194 ft | 319 kts | 329° |
| 2026-05-05 17:07 | 46.61768 | -1.39787 | 9953 ft | 312 kts | 343° |
| 2026-05-05 17:07 | 46.63835 | -1.40564 | 9830 ft | 300 kts | 343° |
| 2026-05-05 17:08 | 46.65818 | -1.41321 | 9694 ft | 289 kts | 342° |
| 2026-05-05 17:08 | 46.67745 | -1.42063 | 9387 ft | 284 kts | 342° |
| 2026-05-05 17:08 | 46.69631 | -1.42790 | 9006 ft | 283 kts | 343° |
| 2026-05-05 17:08 | 46.71531 | -1.43522 | 8649 ft | 281 kts | 342° |
| 2026-05-05 17:09 | 46.73410 | -1.44257 | 8030 ft | 277 kts | 342° |
| 2026-05-05 17:09 | 46.75273 | -1.44997 | 7561 ft | 276 kts | 342° |
| 2026-05-05 17:09 | 46.77108 | -1.45729 | 7213 ft | 274 kts | 342° |
| 2026-05-05 17:09 | 46.78946 | -1.46464 | 6831 ft | 272 kts | 342° |
| 2026-05-05 17:10 | 46.80770 | -1.47189 | 6453 ft | 271 kts | 342° |
| 2026-05-05 17:10 | 46.82587 | -1.47910 | 6070 ft | 269 kts | 342° |
| 2026-05-05 17:10 | 46.84352 | -1.48613 | 5717 ft | 261 kts | 342° |
| 2026-05-05 17:10 | 46.86032 | -1.49279 | 5537 ft | 241 kts | 342° |
| 2026-05-05 17:11 | 46.87622 | -1.49908 | 5149 ft | 235 kts | 342° |
| 2026-05-05 17:11 | 46.89184 | -1.50529 | 4932 ft | 230 kts | 342° |
| 2026-05-05 17:11 | 46.90605 | -1.51464 | 4724 ft | 221 kts | 315° |
| 2026-05-05 17:11 | 46.91388 | -1.53320 | 4530 ft | 219 kts | 285° |
| 2026-05-05 17:12 | 46.91445 | -1.55542 | 4348 ft | 221 kts | 263° |
| 2026-05-05 17:12 | 46.91231 | -1.57772 | 4157 ft | 221 kts | 266° |
| 2026-05-05 17:12 | 46.91123 | -1.60019 | 3966 ft | 220 kts | 270° |
| 2026-05-05 17:12 | 46.91119 | -1.62258 | 3765 ft | 220 kts | 274° |
| 2026-05-05 17:13 | 46.91203 | -1.64473 | 3577 ft | 220 kts | 277° |
| 2026-05-05 17:13 | 46.91381 | -1.66691 | 3438 ft | 219 kts | 281° |
| 2026-05-05 17:13 | 46.91645 | -1.68862 | 3310 ft | 211 kts | 284° |
| 2026-05-05 17:13 | 46.91980 | -1.70925 | 3181 ft | 205 kts | 288° |
| 2026-05-05 17:14 | 46.92531 | -1.72765 | 3082 ft | 195 kts | 306° |
| 2026-05-05 17:14 | 46.93446 | -1.74161 | 2997 ft | 187 kts | 324° |
| 2026-05-05 17:14 | 46.94571 | -1.74986 | 3019 ft | 178 kts | 341° |
| 2026-05-05 17:14 | 46.95792 | -1.75238 | 3025 ft | 178 kts | 359° |
| 2026-05-05 17:15 | 46.97001 | -1.74910 | 3002 ft | 177 kts | 17° |
| 2026-05-05 17:15 | 46.98071 | -1.74152 | 3011 ft | 178 kts | 24° |
| 2026-05-05 17:15 | 46.99198 | -1.73301 | 3004 ft | 178 kts | 24° |
| 2026-05-05 17:15 | 47.00278 | -1.72484 | 3007 ft | 178 kts | 24° |
| 2026-05-05 17:16 | 47.01392 | -1.71641 | 2892 ft | 178 kts | 24° |
| 2026-05-05 17:16 | 47.02476 | -1.70821 | 2687 ft | 176 kts | 24° |
| 2026-05-05 17:16 | 47.03557 | -1.70003 | 2467 ft | 173 kts | 24° |
| 2026-05-05 17:16 | 47.04628 | -1.69192 | 2240 ft | 173 kts | 24° |
| 2026-05-05 17:17 | 47.05683 | -1.68391 | 1998 ft | 164 kts | 24° |
| 2026-05-05 17:17 | 47.06629 | -1.67672 | 1797 ft | 145 kts | 24° |
| 2026-05-05 17:17 | 47.07493 | -1.67017 | 1601 ft | 136 kts | 24° |
| 2026-05-05 17:17 | 47.08318 | -1.66393 | 1433 ft | 131 kts | 23° |
| 2026-05-05 17:18 | 47.09120 | -1.65785 | 1235 ft | 130 kts | 22° |
| 2026-05-05 17:18 | 47.09929 | -1.65170 | 1031 ft | 131 kts | 22° |
| 2026-05-05 17:18 | 47.10733 | -1.64561 | 873 ft | 129 kts | 23° |
| 2026-05-05 17:18 | 47.11556 | -1.63936 | 685 ft | 136 kts | 23° |
| 2026-05-05 17:19 | 47.12395 | -1.63295 | 502 ft | 136 kts | 25° |
| 2026-05-05 17:19 | 47.13236 | -1.62649 | 359 ft | 136 kts | 24° |
| 2026-05-05 17:19 | 47.14081 | -1.62012 | 157 ft | 136 kts | 25° |
| 2026-05-05 17:19 | 47.14875 | -1.61409 | 97 ft | 111 kts | 27° |
| 2026-05-05 17:20 | 47.15401 | -1.61009 | 96 ft | 62 kts | 27° |
| 2026-05-05 17:20 | 47.15629 | -1.60836 | 97 ft | 14 kts | 27° |
| 2026-05-05 17:20 | 47.15674 | -1.60746 | 97 ft | 10 kts | 95° |
| 2026-05-05 17:20 | 47.15646 | -1.60665 | 99 ft | 7 kts | 126° |
| 2026-05-05 17:21 | 47.15623 | -1.60616 | 100 ft | 4 kts | 115° |
| 2026-05-05 17:21 | 47.15656 | -1.60544 | 102 ft | 14 kts | 26° |
| 2026-05-05 17:21 | 47.15741 | -1.60472 | 98 ft | 10 kts | 64° |
| 2026-05-05 17:22 | 47.15730 | -1.60328 | 98 ft | 2 kts | 78° |
| 2026-05-05 17:22 | 47.15731 | -1.60321 | 98 ft | 0 kts | 78° |
| 2026-05-05 17:22 | 47.15733 | -1.60311 | 98 ft | 1 kts | 78° |
| 2026-05-05 17:22 | 47.15733 | -1.60310 | 98 ft | 0 kts | 78° |